Terminal Aerodrome Forecast
Issued by NWS

Home | Current Version | Previous Version | Text Only | Print | Product List | Glossary On
Versions: 1 2 3 4 5 6 7 8 9 10 11 12 13 14
530
FTUS43 KPAH 041120
TAFCGI
TAF
KCGI 041120Z 0412/0512 08006KT P6SM BKN025
      TEMPO 0412/0415 5SM -RA BR OVC015
     FM041500 09005KT 5SM -RADZ BR OVC015
     FM042100 27005KT 4SM BR OVC015
     FM050000 33004KT P6SM BKN025
     FM050300 35003KT P6SM SCT100 BKN250=

USA.gov is the U.S. government's official web portal to all federal, state and local government web resources and services.